createdAt,value
2016-10-20T00:00:47.923Z,7.93
2016-10-20T00:01:47.886Z,8.02
2016-10-20T00:02:47.549Z,7.89
2016-10-20T00:03:47.816Z,7.92
2016-10-20T00:04:47.471Z,7.95
2016-10-20T00:05:47.734Z,8.04
2016-10-20T00:06:47.698Z,8
2016-10-20T00:07:47.355Z,8.04
2016-10-20T00:08:47.618Z,8
2016-10-20T00:09:47.578Z,7.97
2016-10-20T00:10:47.539Z,8
2016-10-20T00:11:47.499Z,7.97
2016-10-20T00:12:47.156Z,8.02
2016-10-20T00:13:47.125Z,7.97
2016-10-20T00:14:47.400Z,7.98
2016-10-20T00:15:47.345Z,8
2016-10-20T00:16:47.311Z,8.04
2016-10-20T00:17:47.271Z,8.02
2016-10-20T00:18:47.231Z,8.08
2016-10-20T00:19:47.194Z,8.1
2016-10-20T00:20:46.852Z,8.1
2016-10-20T00:21:47.117Z,8.08
2016-10-20T00:22:47.073Z,8.05
2016-10-20T00:23:47.038Z,8.04
2016-10-20T00:24:46.699Z,8.18
2016-10-20T00:25:46.964Z,8.16
2016-10-20T00:26:46.920Z,8.18
2016-10-20T00:27:46.283Z,8.2
2016-10-20T00:28:46.548Z,8.19
2016-10-20T00:29:46.807Z,8.16
2016-10-20T00:30:46.766Z,8.19
2016-10-20T00:31:46.428Z,8.18
2016-10-20T00:32:46.695Z,8.18
2016-10-20T00:33:46.659Z,8.12
2016-10-20T00:34:46.616Z,8.18
2016-10-20T00:35:46.320Z,8.08
2016-10-20T00:36:46.543Z,8.02
2016-10-20T00:37:46.501Z,8.12
2016-10-20T00:38:46.463Z,8.04
2016-10-20T00:39:46.422Z,8.04
2016-10-20T00:40:46.382Z,7.97
2016-10-20T00:41:46.043Z,7.92
2016-10-20T00:42:46.008Z,7.95
2016-10-20T00:43:46.267Z,7.89
2016-10-20T00:44:46.235Z,7.92
2016-10-20T00:45:45.890Z,7.89
2016-10-20T00:46:46.156Z,7.93
2016-10-20T00:47:46.115Z,7.83
2016-10-20T00:48:46.079Z,7.86
2016-10-20T00:49:46.071Z,7.93
2016-10-20T00:50:46.006Z,7.89
2016-10-20T00:51:45.968Z,7.97
2016-10-20T00:52:45.927Z,8.02
2016-10-20T00:53:45.584Z,7.98
2016-10-20T00:54:45.578Z,8.08
2016-10-20T00:55:45.806Z,8.08
2016-10-20T00:56:45.775Z,8.18
2016-10-20T00:57:45.742Z,8.2
2016-10-20T00:58:45.694Z,8.2
2016-10-20T00:59:45.656Z,8.16
2016-10-20T01:00:45.615Z,8.3
2016-10-20T01:01:45.577Z,8.34
2016-10-20T01:02:45.240Z,8.28
2016-10-20T01:03:45.500Z,8.37
2016-10-20T01:04:45.463Z,8.34
2016-10-20T01:05:45.120Z,8.47
2016-10-20T01:06:45.084Z,8.48
2016-10-20T01:07:45.352Z,8.44
2016-10-20T01:08:44.705Z,8.48
2016-10-20T01:09:44.972Z,8.45
2016-10-20T01:10:44.932Z,8.41
2016-10-20T01:11:45.196Z,8.41
2016-10-20T01:12:45.157Z,8.43
2016-10-20T01:13:44.816Z,8.55
2016-10-20T01:14:45.083Z,8.45
2016-10-20T01:15:44.742Z,8.44
2016-10-20T01:16:44.707Z,8.44
2016-10-20T01:17:44.967Z,8.45
2016-10-20T01:18:44.662Z,8.45
2016-10-20T01:19:44.891Z,8.45
2016-10-20T01:20:44.550Z,8.52
2016-10-20T01:21:44.514Z,8.43
2016-10-20T01:22:44.470Z,8.36
2016-10-20T01:23:44.436Z,8.44
2016-10-20T01:24:44.701Z,8.4
2016-10-20T01:25:44.659Z,8.45
2016-10-20T01:26:44.621Z,8.47
2016-10-20T01:27:44.584Z,8.45
2016-10-20T01:28:44.544Z,8.45
2016-10-20T01:29:44.545Z,8.47
2016-10-20T01:30:44.167Z,8.4
2016-10-20T01:31:44.127Z,8.47
2016-10-20T01:32:44.090Z,8.41
2016-10-20T01:33:43.749Z,8.47
2016-10-20T01:34:44.317Z,8.41
2016-10-20T01:35:44.274Z,8.5
2016-10-20T01:36:43.935Z,8.41
2016-10-20T01:37:44.201Z,8.48
2016-10-20T01:38:44.168Z,8.45
2016-10-20T01:39:43.825Z,8.47
2016-10-20T01:40:43.783Z,8.48
2016-10-20T01:41:43.744Z,8.53
2016-10-20T01:42:44.014Z,8.56
2016-10-20T01:43:44.006Z,8.55
2016-10-20T01:44:43.931Z,8.58
2016-10-20T01:45:43.899Z,8.55
2016-10-20T01:46:43.856Z,8.62
2016-10-20T01:47:43.825Z,8.56
2016-10-20T01:48:43.787Z,8.65
2016-10-20T01:49:43.740Z,8.62
2016-10-20T01:50:43.706Z,8.63
2016-10-20T01:51:43.666Z,8.65
2016-10-20T01:52:43.629Z,8.65
2016-10-20T01:53:43.587Z,8.65
2016-10-20T01:54:42.946Z,8.62
2016-10-20T01:55:43.514Z,8.66
2016-10-20T01:56:43.171Z,8.65
2016-10-20T01:57:43.437Z,8.52
2016-10-20T01:58:43.395Z,8.65
2016-10-20T01:59:43.059Z,8.63
2016-10-20T02:00:43.065Z,8.61
2016-10-20T02:01:42.980Z,8.65
2016-10-20T02:02:43.252Z,8.73
2016-10-20T02:03:43.203Z,8.66
2016-10-20T02:04:43.172Z,8.65
2016-10-20T02:05:43.134Z,8.76
2016-10-20T02:06:42.787Z,8.74
2016-10-20T02:07:43.054Z,8.74
2016-10-20T02:08:43.015Z,8.74
2016-10-20T02:09:42.678Z,8.73
2016-10-20T02:10:42.940Z,8.66
2016-10-20T02:11:42.603Z,8.76
2016-10-20T02:12:42.567Z,8.7
2016-10-20T02:13:42.906Z,8.77
2016-10-20T02:14:42.792Z,8.62
2016-10-20T02:15:42.770Z,8.71
2016-10-20T02:16:42.712Z,8.61
2016-10-20T02:17:42.380Z,8.68
2016-10-20T02:18:42.634Z,8.63
2016-10-20T02:19:42.295Z,8.59
2016-10-20T02:20:42.567Z,8.44
2016-10-20T02:21:42.520Z,8.38
2016-10-20T02:22:42.488Z,8.43
2016-10-20T02:23:42.445Z,8.34
2016-10-20T02:24:42.410Z,8.33
2016-10-20T02:25:42.412Z,8.2
2016-10-20T02:26:42.335Z,8.26
2016-10-20T02:27:42.298Z,8.16
2016-10-20T02:28:41.954Z,8.05
2016-10-20T02:29:42.217Z,7.95
2016-10-20T02:30:42.177Z,7.98
2016-10-20T02:31:42.143Z,7.93
2016-10-20T02:32:42.100Z,7.83
2016-10-20T02:33:42.062Z,7.8
2016-10-20T02:34:42.025Z,7.72
2016-10-20T02:35:41.991Z,7.71
2016-10-20T02:36:41.952Z,7.68
2016-10-20T02:37:41.908Z,7.64
2016-10-20T02:38:41.874Z,7.53
2016-10-20T02:39:41.835Z,7.42
2016-10-20T02:40:41.190Z,7.4
2016-10-20T02:41:41.759Z,7.42
2016-10-20T02:42:41.721Z,7.31
2016-10-20T02:43:41.679Z,7.34
2016-10-20T02:44:41.645Z,7.32
2016-10-20T02:45:41.603Z,7.28
2016-10-20T02:46:41.606Z,7.25
2016-10-20T02:47:40.926Z,7.16
2016-10-20T02:48:41.491Z,7.17
2016-10-20T02:49:41.146Z,7.2
2016-10-20T02:50:41.418Z,7.2
2016-10-20T02:51:41.376Z,7.13
2016-10-20T02:52:41.332Z,7.07
2016-10-20T02:53:40.996Z,6.98
2016-10-20T02:54:41.259Z,7.06
2016-10-20T02:55:40.913Z,7.06
2016-10-20T02:56:40.576Z,7.05
2016-10-20T02:57:41.179Z,7.05
2016-10-20T02:58:41.109Z,7.03
2016-10-20T02:59:40.763Z,7.02
2016-10-20T03:00:41.026Z,6.99
2016-10-20T03:01:40.986Z,7.02
2016-10-20T03:02:40.952Z,6.97
2016-10-20T03:03:40.603Z,6.94
2016-10-20T03:04:40.567Z,7.02
2016-10-20T03:05:40.533Z,6.92
2016-10-20T03:06:40.486Z,6.85
2016-10-20T03:07:40.758Z,6.88
2016-10-20T03:08:40.711Z,6.89
2016-10-20T03:09:40.688Z,6.94
2016-10-20T03:10:40.335Z,6.94
2016-10-20T03:11:40.597Z,6.84
2016-10-20T03:12:40.560Z,6.8
2016-10-20T03:13:40.549Z,6.85
2016-10-20T03:14:40.178Z,6.8
2016-10-20T03:15:40.439Z,6.76
2016-10-20T03:16:40.408Z,6.8
2016-10-20T03:17:40.369Z,6.89
2016-10-20T03:18:39.720Z,6.88
2016-10-20T03:19:40.287Z,6.81
2016-10-20T03:20:39.946Z,6.8
2016-10-20T03:21:40.207Z,6.74
2016-10-20T03:22:39.864Z,6.77
2016-10-20T03:23:40.138Z,6.8
2016-10-20T03:24:39.790Z,6.76
2016-10-20T03:25:39.442Z,6.74
2016-10-20T03:26:40.013Z,6.76
2016-10-20T03:27:39.977Z,6.73
2016-10-20T03:28:39.632Z,6.74
2016-10-20T03:29:39.902Z,6.73
2016-10-20T03:30:39.856Z,6.7
2016-10-20T03:31:39.558Z,6.69
2016-10-20T03:32:39.774Z,6.66
2016-10-20T03:33:39.735Z,6.64
2016-10-20T03:34:39.700Z,6.56
2016-10-20T03:35:39.700Z,6.52
2016-10-20T03:36:39.620Z,6.54
2016-10-20T03:37:39.281Z,6.55
2016-10-20T03:38:39.544Z,6.54
2016-10-20T03:39:39.198Z,6.49
2016-10-20T03:40:39.462Z,6.58
2016-10-20T03:41:39.427Z,6.44
2016-10-20T03:42:39.387Z,6.51
2016-10-20T03:43:39.349Z,6.51
2016-10-20T03:44:39.306Z,6.49
2016-10-20T03:45:39.267Z,6.52
2016-10-20T03:46:39.230Z,6.44
2016-10-20T03:47:38.888Z,6.44
2016-10-20T03:48:39.195Z,6.46
2016-10-20T03:49:39.111Z,6.51
2016-10-20T03:50:39.069Z,6.49
2016-10-20T03:51:39.076Z,6.48
2016-10-20T03:52:38.994Z,6.48
2016-10-20T03:53:38.963Z,6.49
2016-10-20T03:54:38.918Z,6.43
2016-10-20T03:55:38.876Z,6.44
2016-10-20T03:56:38.837Z,6.52
2016-10-20T03:57:38.797Z,6.33
2016-10-20T03:58:38.760Z,6.46
2016-10-20T03:59:38.720Z,6.44
2016-10-20T04:00:38.684Z,6.36
2016-10-20T04:01:38.340Z,6.41
2016-10-20T04:02:38.600Z,6.36
2016-10-20T04:03:38.257Z,6.36
2016-10-20T04:04:38.217Z,6.33
2016-10-20T04:05:38.490Z,6.25
2016-10-20T04:06:38.144Z,6.28
2016-10-20T04:07:38.138Z,6.19
2016-10-20T04:08:38.363Z,6.25
2016-10-20T04:09:38.326Z,6.3
2016-10-20T04:10:38.285Z,6.18
2016-10-20T04:11:38.248Z,6.21
2016-10-20T04:12:38.210Z,6.15
2016-10-20T04:13:38.172Z,6.14
2016-10-20T04:14:38.133Z,6.18
2016-10-20T04:15:38.096Z,6.17
2016-10-20T04:16:38.053Z,6.22
2016-10-20T04:17:38.012Z,6.11
2016-10-20T04:18:37.976Z,6.11
2016-10-20T04:19:37.934Z,6.09
2016-10-20T04:20:37.900Z,6.22
2016-10-20T04:21:37.565Z,6.19
2016-10-20T04:22:37.207Z,6.14
2016-10-20T04:23:37.475Z,6.22
2016-10-20T04:24:37.741Z,6.17
2016-10-20T04:25:37.704Z,6.25
2016-10-20T04:26:37.371Z,6.25
2016-10-20T04:27:37.624Z,6.33
2016-10-20T04:28:37.281Z,6.3
2016-10-20T04:29:37.550Z,6.37
2016-10-20T04:30:37.500Z,6.41
2016-10-20T04:31:37.176Z,6.41
2016-10-20T04:32:37.425Z,6.46
2016-10-20T04:33:37.081Z,6.46
2016-10-20T04:34:37.346Z,6.58
2016-10-20T04:35:37.010Z,6.61
2016-10-20T04:36:37.261Z,6.61
2016-10-20T04:37:36.925Z,6.58
2016-10-20T04:38:36.885Z,6.66
2016-10-20T04:39:37.149Z,6.69
2016-10-20T04:40:36.807Z,6.7
2016-10-20T04:41:37.068Z,6.79
2016-10-20T04:42:36.728Z,6.88
2016-10-20T04:43:37.022Z,6.84
2016-10-20T04:44:36.953Z,6.76
2016-10-20T04:45:36.914Z,6.91
2016-10-20T04:46:36.875Z,6.94
2016-10-20T04:47:36.832Z,6.81
2016-10-20T04:48:36.796Z,6.89
2016-10-20T04:49:36.755Z,6.97
2016-10-20T04:50:36.413Z,6.99
2016-10-20T04:51:36.676Z,7.09
2016-10-20T04:52:36.639Z,7.07
2016-10-20T04:53:36.601Z,7.03
2016-10-20T04:54:36.563Z,7.13
2016-10-20T04:55:36.521Z,7.06
2016-10-20T04:56:36.483Z,7.17
2016-10-20T04:57:36.152Z,7.16
2016-10-20T04:58:36.141Z,7.15
2016-10-20T04:59:36.372Z,7.09
2016-10-20T05:00:36.327Z,7.1
2016-10-20T05:01:36.289Z,7.13
2016-10-20T05:02:35.945Z,7.03
2016-10-20T05:03:36.246Z,6.99
2016-10-20T05:04:36.175Z,6.89
2016-10-20T05:05:35.831Z,6.89
2016-10-20T05:06:35.792Z,6.81
2016-10-20T05:07:36.059Z,6.84
2016-10-20T05:08:36.015Z,6.84
2016-10-20T05:09:35.674Z,6.79
2016-10-20T05:10:35.633Z,6.76
2016-10-20T05:11:35.896Z,6.84
2016-10-20T05:12:35.553Z,6.81
2016-10-20T05:13:35.825Z,6.81
2016-10-20T05:14:35.780Z,6.85
2016-10-20T05:15:35.438Z,6.8
2016-10-20T05:16:35.399Z,6.8
2016-10-20T05:17:35.663Z,6.76
2016-10-20T05:18:35.655Z,6.77
2016-10-20T05:19:35.285Z,6.74
2016-10-20T05:20:35.542Z,6.73
2016-10-20T05:21:35.508Z,6.77
2016-10-20T05:22:35.470Z,6.77
2016-10-20T05:23:35.133Z,6.74
2016-10-20T05:24:35.389Z,6.71
2016-10-20T05:25:35.390Z,6.73
2016-10-20T05:26:35.009Z,6.7
2016-10-20T05:27:35.273Z,6.71
2016-10-20T05:28:35.234Z,6.7
2016-10-20T05:29:35.198Z,6.7
2016-10-20T05:30:35.157Z,6.73
2016-10-20T05:31:34.815Z,6.66
2016-10-20T05:32:34.775Z,6.59
2016-10-20T05:33:35.043Z,6.56
2016-10-20T05:34:34.999Z,6.51
2016-10-20T05:35:34.958Z,6.51
2016-10-20T05:36:34.921Z,6.54
2016-10-20T05:37:34.882Z,6.55
2016-10-20T05:38:34.843Z,6.56
2016-10-20T05:39:34.498Z,6.41
2016-10-20T05:40:34.768Z,6.54
2016-10-20T05:41:34.726Z,6.48
2016-10-20T05:42:34.680Z,6.46
2016-10-20T05:43:34.652Z,6.46
2016-10-20T05:44:34.604Z,6.43
2016-10-20T05:45:34.572Z,6.4
2016-10-20T05:46:34.533Z,6.44
2016-10-20T05:47:34.486Z,6.38
2016-10-20T05:48:34.449Z,6.43
2016-10-20T05:49:34.415Z,6.4
2016-10-20T05:50:34.370Z,6.38
2016-10-20T05:51:34.333Z,6.38
2016-10-20T05:52:34.337Z,6.4
2016-10-20T05:53:34.253Z,6.44
2016-10-20T05:54:34.210Z,6.46
2016-10-20T05:55:34.179Z,6.4
2016-10-20T05:56:33.834Z,6.41
2016-10-20T05:57:33.793Z,6.46
2016-10-20T05:58:34.062Z,6.4
2016-10-20T05:59:33.714Z,6.41
2016-10-20T06:00:33.681Z,6.46
2016-10-20T06:01:33.937Z,6.48
2016-10-20T06:02:33.597Z,6.51
2016-10-20T06:03:33.552Z,6.51
2016-10-20T06:04:33.818Z,6.52
2016-10-20T06:05:33.781Z,6.49
2016-10-20T06:06:33.780Z,6.54
2016-10-20T06:07:33.703Z,6.51
2016-10-20T06:08:33.666Z,6.56
2016-10-20T06:09:33.630Z,6.58
2016-10-20T06:10:33.586Z,6.56
2016-10-20T06:11:33.240Z,6.64
2016-10-20T06:12:33.508Z,6.56
2016-10-20T06:13:33.175Z,6.71
2016-10-20T06:14:33.431Z,6.64
2016-10-20T06:15:33.392Z,6.7
2016-10-20T06:16:33.353Z,6.73
2016-10-20T06:17:33.310Z,6.74
2016-10-20T06:18:33.006Z,6.8
2016-10-20T06:19:32.928Z,6.89
2016-10-20T06:20:33.197Z,6.97
2016-10-20T06:21:32.850Z,7.03
2016-10-20T06:22:33.110Z,7.15
2016-10-20T06:23:33.082Z,7.2
2016-10-20T06:24:32.733Z,7.3
2016-10-20T06:25:32.997Z,7.3
2016-10-20T06:26:32.960Z,7.4
2016-10-20T06:27:32.923Z,7.4
2016-10-20T06:28:32.881Z,7.4
2016-10-20T06:29:32.574Z,7.45
2016-10-20T06:30:32.499Z,7.49
2016-10-20T06:31:32.765Z,7.5
2016-10-20T06:32:32.728Z,7.6
2016-10-20T06:33:32.692Z,7.61
2016-10-20T06:34:32.648Z,7.52
2016-10-20T06:35:32.308Z,7.6
2016-10-20T06:36:32.273Z,7.64
2016-10-20T06:37:32.532Z,7.61
2016-10-20T06:38:32.495Z,7.68
2016-10-20T06:39:32.457Z,7.68
2016-10-20T06:40:32.420Z,7.69
2016-10-20T06:41:32.376Z,7.58
2016-10-20T06:42:32.342Z,7.52
2016-10-20T06:43:32.318Z,7.53
2016-10-20T06:44:32.260Z,7.55
2016-10-20T06:45:31.918Z,7.57
2016-10-20T06:46:31.880Z,7.53
2016-10-20T06:47:32.145Z,7.52
2016-10-20T06:48:32.106Z,7.49
2016-10-20T06:49:32.065Z,7.46
2016-10-20T06:50:32.035Z,7.57
2016-10-20T06:51:31.991Z,7.5
2016-10-20T06:52:31.955Z,7.45
2016-10-20T06:53:31.911Z,7.45
2016-10-20T06:54:31.876Z,7.53
2016-10-20T06:55:31.834Z,7.53
2016-10-20T06:56:31.837Z,7.68
2016-10-20T06:57:31.497Z,7.74
2016-10-20T06:58:31.716Z,7.82
2016-10-20T06:59:31.377Z,7.97
2016-10-20T07:00:31.637Z,8.19
2016-10-20T07:01:31.603Z,8.34
2016-10-20T07:02:31.572Z,8.53
2016-10-20T07:03:31.560Z,8.7
2016-10-20T07:04:31.218Z,9.02
2016-10-20T07:05:31.144Z,9.23
2016-10-20T07:06:31.113Z,9.33
2016-10-20T07:07:31.071Z,9.43
2016-10-20T07:08:31.039Z,9.47
2016-10-20T07:09:30.691Z,9.48
2016-10-20T07:10:31.261Z,9.5
2016-10-20T07:11:31.222Z,9.48
2016-10-20T07:12:31.183Z,9.56
2016-10-20T07:13:30.542Z,9.66
2016-10-20T07:14:30.814Z,9.71
2016-10-20T07:15:31.071Z,9.89
2016-10-20T07:16:30.732Z,9.93
2016-10-20T07:17:30.995Z,10.09
2016-10-20T07:18:30.656Z,10.17
2016-10-20T07:19:30.915Z,10.27
2016-10-20T07:20:30.885Z,10.33
2016-10-20T07:21:30.852Z,10.51
2016-10-20T07:22:30.812Z,10.7
2016-10-20T07:23:30.774Z,10.81
2016-10-20T07:24:30.734Z,10.91
2016-10-20T07:25:30.396Z,10.89
2016-10-20T07:26:30.356Z,10.89
2016-10-20T07:27:30.623Z,10.89
2016-10-20T07:28:30.612Z,10.79
2016-10-20T07:29:30.550Z,10.74
2016-10-20T07:30:30.508Z,10.79
2016-10-20T07:31:30.510Z,10.79
2016-10-20T07:32:30.441Z,10.82
2016-10-20T07:33:30.108Z,10.91
2016-10-20T07:34:30.372Z,11.02
2016-10-20T07:35:30.034Z,11.15
2016-10-20T07:36:30.334Z,11.29
2016-10-20T07:37:29.959Z,11.36
2016-10-20T07:38:30.220Z,11.46
2016-10-20T07:39:29.885Z,11.57
2016-10-20T07:40:29.843Z,11.64
2016-10-20T07:41:29.809Z,11.8
2016-10-20T07:42:30.082Z,11.86
2016-10-20T07:43:30.042Z,11.98
2016-10-20T07:44:30.004Z,12.12
2016-10-20T07:45:29.669Z,12.14
2016-10-20T07:46:29.633Z,12.32
2016-10-20T07:47:29.899Z,12.74
2016-10-20T07:48:29.860Z,12.93
2016-10-20T07:49:29.522Z,13.17
2016-10-20T07:50:29.794Z,13.46
2016-10-20T07:51:29.760Z,14.52
2016-10-20T07:52:29.726Z,16.28
2016-10-20T07:53:29.692Z,17.93
2016-10-20T07:54:29.652Z,19.46
2016-10-20T07:55:29.651Z,20.79
2016-10-20T07:56:29.589Z,22.03
2016-10-20T07:57:29.552Z,22.97
2016-10-20T07:58:29.224Z,23.8
2016-10-20T07:59:29.191Z,24.2
2016-10-20T08:00:29.457Z,24.85
2016-10-20T08:01:29.122Z,25.36
2016-10-20T08:02:29.397Z,25.76
2016-10-20T08:03:29.370Z,25.67
2016-10-20T08:04:28.737Z,25.57
2016-10-20T08:05:28.702Z,25.09
2016-10-20T08:06:29.280Z,24.18
2016-10-20T08:07:28.658Z,23.27
2016-10-20T08:08:28.928Z,22.39
2016-10-20T08:09:29.203Z,21.58
2016-10-20T08:10:28.876Z,21.03
2016-10-20T08:11:28.839Z,20.58
2016-10-20T08:12:28.819Z,20.01
2016-10-20T08:13:29.083Z,19.51
2016-10-20T08:14:28.757Z,19.07
2016-10-20T08:15:29.028Z,18.72
2016-10-20T08:16:29.000Z,18.14
2016-10-20T08:17:28.977Z,17.78
2016-10-20T08:18:28.334Z,17.4
2016-10-20T08:19:28.909Z,17.31
2016-10-20T08:20:28.881Z,17.03
2016-10-20T08:21:28.853Z,17.03
2016-10-20T08:22:28.824Z,16.81
2016-10-20T08:23:28.828Z,16.73
2016-10-20T08:24:28.460Z,16.53
2016-10-20T08:25:28.726Z,16.41
2016-10-20T08:26:28.400Z,16.34
2016-10-20T08:27:28.698Z,16.23
2016-10-20T08:28:28.339Z,16.15
2016-10-20T08:29:28.606Z,16.07
2016-10-20T08:30:28.575Z,15.96
2016-10-20T08:31:28.543Z,15.89
2016-10-20T08:32:28.519Z,15.8
2016-10-20T08:33:28.477Z,15.69
2016-10-20T08:34:28.148Z,15.6
2016-10-20T08:35:28.749Z,15.57
2016-10-20T08:36:28.082Z,15.44
2016-10-20T08:37:28.051Z,15.31
2016-10-20T08:38:28.018Z,15.28
2016-10-20T08:39:27.989Z,15.02
2016-10-20T08:40:28.263Z,14.94
2016-10-20T08:41:27.929Z,15.01
2016-10-20T08:42:28.193Z,14.92
2016-10-20T08:43:28.162Z,14.77
2016-10-20T08:44:28.128Z,14.72
2016-10-20T08:45:27.797Z,14.77
2016-10-20T08:46:28.064Z,14.6
2016-10-20T08:47:27.730Z,14.57
2016-10-20T08:48:28.003Z,14.46
2016-10-20T08:49:27.963Z,14.46
2016-10-20T08:50:27.942Z,14.51
2016-10-20T08:51:27.604Z,14.43
2016-10-20T08:52:27.902Z,14.28
2016-10-20T08:53:27.831Z,14.37
2016-10-20T08:54:27.802Z,14.21
2016-10-20T08:55:27.773Z,14.18
2016-10-20T08:56:27.742Z,14.17
2016-10-20T08:57:27.401Z,14.07
2016-10-20T08:58:27.670Z,13.96
2016-10-20T08:59:27.329Z,13.95
2016-10-20T09:00:27.307Z,13.96
2016-10-20T09:01:27.570Z,13.97
2016-10-20T09:02:27.535Z,14.07
2016-10-20T09:03:27.500Z,14.06
2016-10-20T09:04:27.473Z,14.09
2016-10-20T09:05:27.436Z,14.04
2016-10-20T09:06:27.406Z,14.04
2016-10-20T09:07:27.367Z,14.04
2016-10-20T09:08:27.337Z,14.03
2016-10-20T09:09:27.301Z,14.02
2016-10-20T09:10:27.265Z,14.18
2016-10-20T09:11:27.231Z,14.21
2016-10-20T09:12:27.196Z,14.27
2016-10-20T09:13:27.166Z,14.4
2016-10-20T09:14:27.136Z,14.45
2016-10-20T09:15:27.104Z,14.69
2016-10-20T09:16:27.070Z,14.8
2016-10-20T09:17:27.044Z,14.96
2016-10-20T09:18:26.996Z,15.14
2016-10-20T09:19:26.966Z,15.43
2016-10-20T09:20:26.932Z,15.62
2016-10-20T09:21:26.897Z,15.62
2016-10-20T09:22:26.557Z,15.62
2016-10-20T09:23:26.833Z,15.56
2016-10-20T09:24:26.801Z,15.8
2016-10-20T09:25:26.766Z,16.07
2016-10-20T09:26:26.734Z,16.23
2016-10-20T09:27:26.400Z,16.82
2016-10-20T09:28:26.665Z,17.12
2016-10-20T09:29:26.378Z,17.12
2016-10-20T09:30:26.302Z,17.11
2016-10-20T09:31:26.568Z,17.36
2016-10-20T09:32:26.541Z,17.46
2016-10-20T09:33:26.507Z,17.44
2016-10-20T09:34:26.474Z,17.36
2016-10-20T09:35:26.445Z,17.25
2016-10-20T09:36:25.805Z,17
2016-10-20T09:37:26.088Z,16.83
2016-10-20T09:38:26.080Z,16.6
2016-10-20T09:39:25.712Z,16.35
2016-10-20T09:40:25.984Z,16.25
2016-10-20T09:41:25.952Z,16.3
2016-10-20T09:42:25.917Z,16.23
2016-10-20T09:43:26.187Z,16.24
2016-10-20T09:44:25.850Z,16.15
2016-10-20T09:45:25.821Z,16.12
2016-10-20T09:46:26.090Z,16.02
2016-10-20T09:47:25.755Z,16.04
2016-10-20T09:48:26.031Z,15.94
2016-10-20T09:49:26.031Z,15.97
2016-10-20T09:50:25.664Z,16.01
2016-10-20T09:51:25.931Z,16.02
2016-10-20T09:52:25.601Z,16.14
2016-10-20T09:53:25.868Z,16.21
2016-10-20T09:54:25.530Z,16.25
2016-10-20T09:55:25.812Z,16.63
2016-10-20T09:56:25.810Z,16.81
2016-10-20T09:57:25.135Z,17.55
2016-10-20T09:58:25.709Z,18.84
2016-10-20T09:59:25.676Z,20.06
2016-10-20T10:00:25.639Z,21.38
2016-10-20T10:01:25.609Z,22.75
2016-10-20T10:02:25.277Z,23.9
2016-10-20T10:03:25.255Z,24.15
2016-10-20T10:04:25.221Z,24.85
2016-10-20T10:05:25.196Z,25.7
2016-10-20T10:06:24.857Z,26.35
2016-10-20T10:07:25.440Z,26.82
2016-10-20T10:08:25.415Z,27.47
2016-10-20T10:09:25.419Z,27.96
2016-10-20T10:10:25.362Z,27.67
2016-10-20T10:11:25.028Z,27.34
2016-10-20T10:12:25.304Z,27.55
2016-10-20T10:13:24.978Z,27.88
2016-10-20T10:14:25.255Z,27.67
2016-10-20T10:15:24.925Z,27.25
2016-10-20T10:16:25.206Z,26.99
2016-10-20T10:17:25.177Z,27.47
2016-10-20T10:18:25.154Z,27.79
2016-10-20T10:19:25.123Z,27.65
2016-10-20T10:20:25.103Z,27.02
2016-10-20T10:21:25.081Z,26.91
2016-10-20T10:22:24.444Z,27.22
2016-10-20T10:23:24.726Z,27.31
2016-10-20T10:24:24.702Z,26.91
2016-10-20T10:25:25.020Z,27.12
2016-10-20T10:26:24.954Z,26.94
2016-10-20T10:27:24.327Z,26.25
2016-10-20T10:28:24.906Z,25.55
2016-10-20T10:29:24.877Z,24.76
2016-10-20T10:30:24.556Z,24.18
2016-10-20T10:31:24.825Z,24
2016-10-20T10:32:24.838Z,24.21
2016-10-20T10:33:24.475Z,24.32
2016-10-20T10:34:24.487Z,24.45
2016-10-20T10:35:24.419Z,24.95
2016-10-20T10:36:24.394Z,25.38
2016-10-20T10:37:24.676Z,25.47
2016-10-20T10:38:24.649Z,25.65
2016-10-20T10:39:24.320Z,25.25
2016-10-20T10:40:24.603Z,24.53
2016-10-20T10:41:24.578Z,23.97
2016-10-20T10:42:24.553Z,23.39
2016-10-20T10:43:23.920Z,22.8
2016-10-20T10:44:24.493Z,22.37
2016-10-20T10:45:24.171Z,21.98
2016-10-20T10:46:24.443Z,21.4
2016-10-20T10:47:24.414Z,20.97
2016-10-20T10:48:24.425Z,20.54
2016-10-20T10:49:24.366Z,20.05
2016-10-20T10:50:24.038Z,19.77
2016-10-20T10:51:24.304Z,19.39
2016-10-20T10:52:24.276Z,19.16
2016-10-20T10:53:24.249Z,18.87
2016-10-20T10:54:24.230Z,18.62
2016-10-20T10:55:24.199Z,18.2
2016-10-20T10:56:23.873Z,18.07
2016-10-20T10:57:24.137Z,17.74
2016-10-20T10:58:24.106Z,17.44
2016-10-20T10:59:23.776Z,17.25
2016-10-20T11:00:24.053Z,17.12
2016-10-20T11:01:24.022Z,16.88
2016-10-20T11:02:23.690Z,16.75
2016-10-20T11:03:23.959Z,16.5
2016-10-20T11:04:23.633Z,16.3
2016-10-20T11:05:23.604Z,16.23
2016-10-20T11:06:23.870Z,16.23
2016-10-20T11:07:23.839Z,16.28
2016-10-20T11:08:23.504Z,16.2
2016-10-20T11:09:23.472Z,16.12
2016-10-20T11:10:23.442Z,16.38
2016-10-20T11:11:23.412Z,17.03
2016-10-20T11:12:23.679Z,17.51
2016-10-20T11:13:23.651Z,17.78
2016-10-20T11:14:23.622Z,17.66
2016-10-20T11:15:23.286Z,17.41
2016-10-20T11:16:23.556Z,17.23
2016-10-20T11:17:23.529Z,17.12
2016-10-20T11:18:23.495Z,17.21
2016-10-20T11:19:23.163Z,17.28
2016-10-20T11:20:23.127Z,17.34
2016-10-20T11:21:23.403Z,17.41
2016-10-20T11:22:23.070Z,17.59
2016-10-20T11:23:23.341Z,17.68
2016-10-20T11:24:23.006Z,17.68
2016-10-20T11:25:23.296Z,17.68
2016-10-20T11:26:23.243Z,17.62
2016-10-20T11:27:23.213Z,17.31
2016-10-20T11:28:22.884Z,17.04
2016-10-20T11:29:23.153Z,16.79
2016-10-20T11:30:23.117Z,16.7
2016-10-20T11:31:22.784Z,16.63
2016-10-20T11:32:23.058Z,16.66
2016-10-20T11:33:23.023Z,16.76
2016-10-20T11:34:22.690Z,16.81
2016-10-20T11:35:22.660Z,16.81
2016-10-20T11:36:22.933Z,16.86
2016-10-20T11:37:22.903Z,16.79
2016-10-20T11:38:22.867Z,16.79
2016-10-20T11:39:22.837Z,16.78
2016-10-20T11:40:22.800Z,16.7
2016-10-20T11:41:22.773Z,16.6
2016-10-20T11:42:22.443Z,16.43
2016-10-20T11:43:22.407Z,16.28
2016-10-20T11:44:22.678Z,16.14
2016-10-20T11:45:22.343Z,16.04
2016-10-20T11:46:22.616Z,15.89
2016-10-20T11:47:22.586Z,15.76
2016-10-20T11:48:22.555Z,15.71
2016-10-20T11:49:22.215Z,15.69
2016-10-20T11:50:22.484Z,15.65
2016-10-20T11:51:22.452Z,15.67
2016-10-20T11:52:22.417Z,15.64
2016-10-20T11:53:22.410Z,15.75
2016-10-20T11:54:22.049Z,15.64
2016-10-20T11:55:22.019Z,15.83
2016-10-20T11:56:22.288Z,15.86
2016-10-20T11:57:22.259Z,16
2016-10-20T11:58:21.920Z,16.07
2016-10-20T11:59:22.188Z,16.17
2016-10-20T12:00:22.160Z,16.15
2016-10-20T12:01:22.141Z,16.24
2016-10-20T12:02:22.099Z,16.08
2016-10-20T12:03:22.058Z,16.17
2016-10-20T12:04:22.028Z,16.2
2016-10-20T12:05:21.397Z,16.21
2016-10-20T12:06:21.974Z,16.08
2016-10-20T12:07:21.629Z,16.05
2016-10-20T12:08:21.900Z,15.87
2016-10-20T12:09:21.951Z,15.86
2016-10-20T12:10:21.532Z,15.82
2016-10-20T12:11:21.505Z,15.72
2016-10-20T12:12:21.779Z,15.67
2016-10-20T12:13:21.439Z,15.62
2016-10-20T12:14:21.406Z,15.62
2016-10-20T12:15:21.676Z,15.5
2016-10-20T12:16:21.647Z,15.44
2016-10-20T12:17:21.608Z,15.36
2016-10-20T12:18:21.273Z,15.35
2016-10-20T12:19:21.544Z,15.34
2016-10-20T12:20:21.505Z,15.36
2016-10-20T12:21:21.488Z,15.49
2016-10-20T12:22:21.444Z,15.44
2016-10-20T12:23:21.423Z,15.57
2016-10-20T12:24:21.384Z,15.57
2016-10-20T12:25:21.354Z,15.54
2016-10-20T12:26:21.310Z,15.51
2016-10-20T12:27:21.281Z,15.53
2016-10-20T12:28:20.941Z,15.44
2016-10-20T12:29:20.910Z,15.44
2016-10-20T12:30:21.183Z,15.44
2016-10-20T12:31:21.149Z,15.6
2016-10-20T12:32:21.113Z,15.6
2016-10-20T12:33:21.076Z,15.65
2016-10-20T12:34:21.051Z,15.56
2016-10-20T12:35:21.020Z,15.59
2016-10-20T12:36:20.379Z,15.65
2016-10-20T12:37:20.344Z,15.62
2016-10-20T12:38:20.922Z,15.6
2016-10-20T12:39:20.589Z,15.6
2016-10-20T12:40:20.852Z,15.74
2016-10-20T12:41:20.818Z,15.76
2016-10-20T12:42:20.480Z,15.8
2016-10-20T12:43:20.755Z,15.75
2016-10-20T12:44:20.724Z,15.72
2016-10-20T12:45:20.693Z,15.72
2016-10-20T12:46:20.659Z,15.78
2016-10-20T12:47:20.625Z,15.75
2016-10-20T12:48:20.328Z,15.78
2016-10-20T12:49:20.556Z,15.74
2016-10-20T12:50:19.915Z,15.72
2016-10-20T12:51:20.492Z,15.75
2016-10-20T12:52:20.467Z,15.68
2016-10-20T12:53:20.123Z,15.64
2016-10-20T12:54:20.097Z,15.6
2016-10-20T12:55:20.362Z,15.62
2016-10-20T12:56:20.024Z,15.6
2016-10-20T12:57:20.291Z,15.57
2016-10-20T12:58:19.963Z,15.56
2016-10-20T12:59:20.225Z,15.54
2016-10-20T13:00:20.198Z,15.64
2016-10-20T13:01:19.862Z,15.57
2016-10-20T13:02:19.826Z,15.57
2016-10-20T13:03:20.093Z,15.46
2016-10-20T13:04:19.758Z,15.56
2016-10-20T13:05:19.724Z,15.6
2016-10-20T13:06:19.688Z,15.65
2016-10-20T13:07:19.658Z,15.64
2016-10-20T13:08:19.928Z,15.51
2016-10-20T13:09:19.595Z,15.43
2016-10-20T13:10:19.565Z,15.38